KCAD/CAD METAR and TAF weather

Enter ICAO airport designator
Station Type Date Time Source
KCAD METAR 2022/07/01 01:55 UTC NOAA

KCAD 010155Z AUTO 21008KT 10SM CLR 25/15 A2989 RMK AO2 T02450153


Station Type Date Time Source
KCAD Decoded METAR 2022/07/01 01:55 UTC NOAA

Cadillac / Wexford County, MI, United States (KCAD) 44-17N 085-25W
Jun 30, 2022 - 09:55 PM EDT / 2022.07.01 0155 UTC
Wind: from the SSW (210 degrees) at 9 MPH (8 KT):0
Visibility: 10 mile(s):0
Sky conditions: clear
Temperature: 76.1 F (24.5 C)
Dew Point: 59.5 F (15.3 C)
Relative Humidity: 56%
Pressure (altimeter): 29.89 in. Hg (1012 hPa)
ob: KCAD 010155Z AUTO 21008KT 10SM CLR 25/15 A2989 RMK AO2 T02450153
cycle: 2

Station Type Date Time Source
KCAD TAF UTC NOAA

Error!

Example: see airport list